Core, West Virginia
Current Conditions -  °F | °C
As of 10:53 PM on Thursday 20 Nov 2014 (Local Time) from KMGW Reporting Station
Light Snow Light Snow  
Wind Chill: 21°   Ceiling: 5000
Heat Index: 28°   Visibility: 9mi
Dew Point: 12°   Wind: 7mph
Humidity: 51%   Direction: NA
Pressure: 30.15"   Gusts: NA
Location:  39.68°N, 80.11°W
Report Text: KMGW 210353Z VRB06KT 9SM -SN OVC050 M02/M11 A3015 RMK AO2 SNB15 SLP222 P0000 T10221111
Loading
Personal Weather Stations






























Interactive Weather Map New forecast layout! Learn more

10-Day Weather Forecast

Advertisements
Track Severe Weather on mobile